Craigsville, WV

9:14 AM EST on December 28, 2014 (GMT -0500)
Greenbrier Valley | Change Station
CLOSE
Current Station
Airport
Location: Lewisburg,
Elevation: 2303 ft
Nearby Weather Stations

Elev 2303 ft 37.86 °N, 80.40 °W | Updated 19 minutes ago

Overcast
Overcast
48 °F
Feels Like 48 °F
N
5
Wind Variable Wind from WSW

Today
High -- | Low -- °F
--% Chance of Precip.
Yesterday
High -- | Low -- °F
Precip. -- in
7:38 AM 5:09 PM
Waxing Crescent, 48% visible
Pressure 30.03 in
Visibility 7.0 miles
Clouds Mostly Cloudy 800 ft
Mostly Cloudy 3900 ft
Overcast 4700 ft
Dew Point 46 °F
Humidity 92%
Rainfall 0.00 in
Snow Depth Not available.
UV 0 out of 12
Pollen .10 out of 12
Air Quality Not available.
Flu Activity Not available.
METAR KLWB 281355Z AUTO 24004KT 7SM BKN008 BKN039 OVC047 09/08 A3003 RMK AO2 T00870075

More Conditions Fewer Conditions

Pressure 30.03 in
Visibility 7.0 miles
Clouds Mostly Cloudy 800 ft
Mostly Cloudy 3900 ft
Overcast 4700 ft
Dew Point 46 °F
Humidity 92%
Rainfall 0.00 in
Snow Depth Not available.
UV 0 out of 12
Pollen .10 out of 12
Air Quality Not available.
Flu Activity Not available.
METAR KLWB 281355Z AUTO 24004KT 7SM BKN008 BKN039 OVC047 09/08 A3003 RMK AO2 T00870075

More Conditions Fewer Conditions

10-Day Weather Forecast

Almanac

Astronomy

Dec. 28, 2014 Rise Set
Actual Time
Civil Twilight
Nautical Twilight
Astronomical Twilight
Moon
Length of Visible Light
Length of Day
Tomorrow will be .
, % of the Moon is Illuminated

Today's Extremes

State Highs State Lows

Community

WunderPhotos

Upload Photos

1,781,269 photos uploaded!

WunderBlogs® & News

Nearby

Air Quality

  Air Quality AQ Index Pollutant
Not available.

Snow Depth

Station Depth Elevation

Earthquake Activity

City Distance Mag. Time & Date
Minimum magnitude displayed is 2.5.

Coastal Water Temperatures

Place Temperature

Nearby Weather Stations